Terminal Aerodrome Forecast
Issued by NWS Shreveport, LA

Home | Current Version | Previous Version | Text Only | Print | Product List | Glossary On
Versions: 1 2 3 4 5 6 7 8 9 10 11 12 13 14 15 16 17 18
000
FTUS44 KSHV 071720
TAFMLU
TAF
KMLU 071720Z 0718/0818 19012KT P6SM SCT035 SCT250
     FM080000 18007KT P6SM SCT050 SCT250
      TEMPO 0810/0814 5SM HZ BKN006
     FM081400 18008KT P6SM SCT010 SCT250
     FM081600 19010KT P6SM SCT030 SCT250=

USA.gov is the U.S. government's official web portal to all federal, state and local government web resources and services.